Time;durP1;ratioP1;P1;durP2;ratioP2;P2;SDS_P1;SDS_P2;PMS_P1;PMS_P2;Temp;Humidity;BMP_temperature;BMP_pressure;BME280_temperature;BME280_humidity;BME280_pressure;Samples;Min_cycle;Max_cycle;Signal;HPM_P1;HPM_P2
2023/09/06 00:04:18;;;;;;;6.03;5.53;;;18.70;30.90;;;;;;10421321;28;20256;-73
2023/09/06 00:09:23;;;;;;;5.70;5.20;;;18.60;30.90;;;;;;10419731;28;20239;-73
2023/09/06 00:14:29;;;;;;;5.97;5.37;;;18.60;31.40;;;;;;10415968;28;20218;-73
2023/09/06 00:19:32;;;;;;;5.50;5.00;;;18.60;31.20;;;;;;10423663;28;20719;-72
2023/09/06 00:24:37;;;;;;;6.13;5.40;;;18.50;31.00;;;;;;10424831;28;20221;-73
2023/09/06 00:29:41;;;;;;;5.80;5.30;;;18.50;31.60;;;;;;10418131;28;20283;-73
2023/09/06 00:34:45;;;;;;;4.70;4.30;;;18.40;31.20;;;;;;10423650;28;20245;-73
2023/09/06 00:39:49;;;;;;;5.50;4.87;;;18.40;31.40;;;;;;10419879;28;20291;-73
2023/09/06 00:44:52;;;;;;;5.17;4.77;;;18.30;31.80;;;;;;10420415;28;20222;-73
2023/09/06 00:49:56;;;;;;;5.03;4.60;;;18.30;31.60;;;;;;10419691;28;20229;-73
2023/09/06 00:55:02;;;;;;;6.07;5.00;;;18.30;31.60;;;;;;10415647;28;20234;-73
2023/09/06 01:00:08;;;;;;;5.23;4.83;;;18.20;32.00;;;;;;10420318;28;20228;-73
2023/09/06 01:05:12;;;;;;;4.87;4.37;;;18.20;31.90;;;;;;10414847;28;20268;-74
2023/09/06 01:10:17;;;;;;;5.00;4.60;;;18.20;31.70;;;;;;10421508;28;20321;-74
2023/09/06 01:15:20;;;;;;;5.43;5.03;;;18.10;32.00;;;;;;10418289;28;20235;-74
2023/09/06 01:20:33;;;;;;;5.40;4.90;;;18.00;31.50;;;;;;10415925;28;20244;-74
2023/09/06 01:25:37;;;;;;;5.00;4.60;;;18.00;32.40;;;;;;10414582;28;20283;-74
2023/09/06 01:30:42;;;;;;;5.17;4.67;;;17.90;31.80;;;;;;10420746;28;20342;-74
2023/09/06 01:35:45;;;;;;;3.90;3.60;;;17.80;31.40;;;;;;10412925;28;20229;-74
2023/09/06 01:40:50;;;;;;;4.80;4.37;;;17.70;31.40;;;;;;10418732;28;20321;-74
2023/09/06 01:45:54;;;;;;;5.13;4.67;;;17.60;31.90;;;;;;10414328;28;20720;-74
2023/09/06 01:50:58;;;;;;;4.43;4.13;;;17.50;31.80;;;;;;10413842;28;20229;-74
2023/09/06 01:56:03;;;;;;;5.20;4.80;;;17.50;32.10;;;;;;10416987;28;20776;-74
2023/09/06 02:01:07;;;;;;;5.00;4.60;;;17.40;32.50;;;;;;10419448;28;20249;-74
2023/09/06 02:06:10;;;;;;;4.10;3.80;;;17.40;32.20;;;;;;10418900;28;21056;-74
2023/09/06 02:11:15;;;;;;;4.67;4.37;;;17.40;32.20;;;;;;10407317;28;20250;-73
2023/09/06 02:16:19;;;;;;;4.27;3.97;;;17.30;32.40;;;;;;10411558;28;20229;-74
2023/09/06 02:21:22;;;;;;;4.17;3.87;;;17.30;32.00;;;;;;10408541;28;20754;-73
2023/09/06 02:26:26;;;;;;;4.30;3.50;;;17.20;32.00;;;;;;10412122;28;20226;-73
2023/09/06 02:31:29;;;;;;;4.23;3.77;;;17.20;32.40;;;;;;10413307;28;20701;-73
2023/09/06 02:36:33;;;;;;;5.10;4.03;;;17.10;32.20;;;;;;10418721;28;20868;-74
2023/09/06 02:41:37;;;;;;;3.80;3.50;;;17.10;32.20;;;;;;10418484;28;20233;-74
2023/09/06 02:46:41;;;;;;;3.50;3.27;;;17.10;32.70;;;;;;10424580;28;20256;-73
2023/09/06 02:51:47;;;;;;;3.63;3.33;;;17.00;32.30;;;;;;10427345;28;20229;-73
2023/09/06 02:56:52;;;;;;;3.73;3.43;;;16.90;32.30;;;;;;10422345;28;20237;-74
2023/09/06 03:01:59;;;;;;;4.40;4.00;;;16.90;33.00;;;;;;10433743;28;20228;-74
2023/09/06 03:07:07;;;;;;;4.97;4.57;;;16.80;32.70;;;;;;10426695;28;20232;-74
2023/09/06 03:12:14;;;;;;;4.60;4.20;;;16.80;32.90;;;;;;10424887;28;20233;-73
2023/09/06 03:17:18;;;;;;;4.03;3.73;;;16.60;33.50;;;;;;10422745;28;20244;-74
2023/09/06 03:22:23;;;;;;;4.27;3.87;;;16.60;33.10;;;;;;10426411;28;20637;-74
2023/09/06 03:27:28;;;;;;;4.87;4.47;;;16.50;33.40;;;;;;10420364;28;20233;-73
2023/09/06 03:32:31;;;;;;;4.87;4.47;;;16.40;33.30;;;;;;10418029;28;20304;-74
2023/09/06 03:37:34;;;;;;;4.60;4.20;;;16.30;33.30;;;;;;10416201;28;20244;-74
2023/09/06 03:42:40;;;;;;;4.40;4.00;;;16.10;33.10;;;;;;10418183;28;20304;-74
2023/09/06 03:47:46;;;;;;;4.33;3.93;;;16.00;33.40;;;;;;10421605;28;20226;-74
2023/09/06 03:52:50;;;;;;;4.73;4.27;;;16.00;33.30;;;;;;10421092;28;20225;-73
2023/09/06 03:57:54;;;;;;;4.07;3.77;;;16.00;33.40;;;;;;10418016;28;20237;-74
2023/09/06 04:02:58;;;;;;;4.30;4.00;;;16.00;33.80;;;;;;10418284;28;20225;-74
2023/09/06 04:08:04;;;;;;;4.27;3.87;;;16.00;33.30;;;;;;10413013;28;20291;-74
2023/09/06 04:13:10;;;;;;;4.00;3.70;;;16.00;33.70;;;;;;10417052;28;20332;-74
2023/09/06 04:18:13;;;;;;;3.80;3.50;;;16.00;33.70;;;;;;10409613;28;20228;-74
2023/09/06 04:23:17;;;;;;;3.87;3.57;;;16.00;33.20;;;;;;10424190;28;20260;-74
2023/09/06 04:28:21;;;;;;;3.73;3.43;;;16.00;33.00;;;;;;10413631;28;21497;-74
2023/09/06 04:33:24;;;;;;;4.40;3.80;;;16.00;33.60;;;;;;10416778;28;20236;-75
2023/09/06 04:38:28;;;;;;;3.63;3.33;;;16.00;33.20;;;;;;10414654;28;20248;-74
2023/09/06 04:43:33;;;;;;;4.03;3.70;;;16.00;33.90;;;;;;10423811;28;20230;-75
2023/09/06 04:48:36;;;;;;;4.10;3.70;;;16.00;33.60;;;;;;10416267;28;20258;-75
2023/09/06 04:53:39;;;;;;;3.27;3.07;;;16.00;33.20;;;;;;10421452;28;20585;-75
2023/09/06 04:58:45;;;;;;;3.53;3.33;;;16.00;33.30;;;;;;10409435;28;20674;-75
2023/09/06 05:03:48;;;;;;;5.50;4.67;;;15.90;33.70;;;;;;10414395;28;20213;-74
2023/09/06 05:08:53;;;;;;;5.63;4.37;;;15.80;33.30;;;;;;10411127;28;20228;-74
2023/09/06 05:13:57;;;;;;;4.13;3.70;;;15.60;33.50;;;;;;10415125;28;20351;-74
2023/09/06 05:19:00;;;;;;;3.93;3.53;;;15.50;34.30;;;;;;10418707;28;20234;-73
2023/09/06 05:24:04;;;;;;;5.37;3.80;;;15.50;34.30;;;;;;10427509;28;20226;-74
2023/09/06 05:29:09;;;;;;;4.33;3.93;;;15.50;34.60;;;;;;10417174;28;20600;-74
2023/09/06 05:34:12;;;;;;;4.03;3.73;;;15.50;35.00;;;;;;10418584;28;20335;-74
2023/09/06 05:39:15;;;;;;;4.70;4.30;;;15.60;34.80;;;;;;10408471;28;20233;-74
2023/09/06 05:44:20;;;;;;;4.40;4.00;;;15.60;35.00;;;;;;10418894;28;20667;-74
2023/09/06 05:49:23;;;;;;;4.50;4.20;;;15.60;35.40;;;;;;10444188;28;20239;-74
2023/09/06 05:54:27;;;;;;;4.27;3.87;;;15.70;34.90;;;;;;10429641;28;20229;-73
2023/09/06 05:59:31;;;;;;;4.80;4.30;;;15.70;35.20;;;;;;10411001;28;20224;-74
2023/09/06 06:04:35;;;;;;;5.97;5.00;;;15.80;35.90;;;;;;10420435;28;20320;-73
2023/09/06 06:09:38;;;;;;;6.03;4.30;;;15.80;35.80;;;;;;10415146;28;20317;-74
2023/09/06 06:14:43;;;;;;;5.03;3.93;;;15.90;36.50;;;;;;10418729;28;20229;-73
2023/09/06 06:19:47;;;;;;;7.10;4.70;;;16.00;37.10;;;;;;10413935;28;20233;-74
2023/09/06 06:24:50;;;;;;;9.93;5.40;;;16.20;36.70;;;;;;10432860;28;20228;-74
2023/09/06 06:29:55;;;;;;;6.47;5.87;;;16.30;36.70;;;;;;10413782;28;20229;-73
2023/09/06 06:35:01;;;;;;;7.03;5.90;;;16.40;37.40;;;;;;10411076;28;20218;-73
2023/09/06 06:40:06;;;;;;;6.17;5.57;;;16.50;37.80;;;;;;10409068;28;20226;-74
2023/09/06 06:45:11;;;;;;;7.63;5.60;;;16.50;37.60;;;;;;10414885;28;20232;-73
2023/09/06 06:50:14;;;;;;;6.57;5.90;;;16.60;38.60;;;;;;10417250;28;20316;-74
2023/09/06 06:55:18;;;;;;;6.00;5.40;;;16.80;38.10;;;;;;10414346;28;20232;-73
2023/09/06 07:00:22;;;;;;;6.20;5.70;;;16.90;38.20;;;;;;10409111;28;20234;-73
2023/09/06 07:05:26;;;;;;;6.30;5.73;;;17.00;38.70;;;;;;10418687;28;20232;-75
2023/09/06 07:10:29;;;;;;;6.73;6.23;;;17.20;38.70;;;;;;10419398;28;20240;-73
2023/09/06 07:15:34;;;;;;;6.90;6.20;;;17.30;38.70;;;;;;10411090;28;20304;-73
2023/09/06 07:20:37;;;;;;;6.57;6.00;;;17.40;39.40;;;;;;10406733;28;20658;-73
2023/09/06 07:25:46;;;;;;;6.30;5.70;;;17.60;39.30;;;;;;10415149;28;20227;-73
2023/09/06 07:30:50;;;;;;;5.63;5.23;;;17.80;40.80;;;;;;10424325;28;20231;-74
2023/09/06 07:35:53;;;;;;;5.97;5.57;;;17.90;39.80;;;;;;10421519;28;20228;-73
2023/09/06 07:40:57;;;;;;;6.50;5.53;;;18.10;39.40;;;;;;10423901;28;20225;-74
2023/09/06 07:46:03;;;;;;;6.10;5.50;;;18.40;39.80;;;;;;10415266;28;20226;-73
2023/09/06 07:51:07;;;;;;;5.30;4.80;;;18.60;40.50;;;;;;10421705;28;20852;-73
2023/09/06 07:56:10;;;;;;;5.00;4.60;;;18.90;39.60;;;;;;10425729;28;20233;-74
2023/09/06 08:01:15;;;;;;;4.63;4.23;;;19.20;40.10;;;;;;10419170;28;20299;-74
2023/09/06 08:06:21;;;;;;;4.00;3.70;;;19.40;40.10;;;;;;10408539;28;20232;-74
2023/09/06 08:11:25;;;;;;;3.97;3.60;;;19.80;39.10;;;;;;10427586;28;20699;-74
2023/09/06 08:16:29;;;;;;;3.83;3.53;;;20.20;39.20;;;;;;10422552;28;20236;-74
2023/09/06 08:21:33;;;;;;;4.83;3.70;;;20.60;38.70;;;;;;10418019;28;20233;-74
2023/09/06 08:26:36;;;;;;;3.73;3.50;;;21.00;38.40;;;;;;10410170;28;20271;-74
2023/09/06 08:31:41;;;;;;;3.70;3.30;;;21.40;38.00;;;;;;10415284;28;20316;-74
2023/09/06 08:36:44;;;;;;;3.90;3.60;;;21.80;38.10;;;;;;10415076;28;20225;-74
2023/09/06 08:41:49;;;;;;;3.23;3.03;;;22.10;37.70;;;;;;10406883;28;20236;-73
2023/09/06 08:46:57;;;;;;;3.30;3.10;;;22.50;36.50;;;;;;10415005;28;20229;-75
2023/09/06 08:52:02;;;;;;;3.40;3.20;;;22.80;36.20;;;;;;10416988;28;20238;-75
2023/09/06 08:57:06;;;;;;;3.47;3.17;;;23.10;36.10;;;;;;10415417;28;20220;-76
2023/09/06 09:02:12;;;;;;;3.60;3.30;;;23.30;35.80;;;;;;10421584;28;20234;-75
2023/09/06 09:07:18;;;;;;;3.90;3.53;;;23.60;35.00;;;;;;10416303;28;20312;-74
2023/09/06 09:12:24;;;;;;;3.37;3.13;;;23.90;34.40;;;;;;10419031;28;21298;-74
2023/09/06 09:17:30;;;;;;;3.43;3.20;;;24.20;34.60;;;;;;10418258;28;20233;-75
2023/09/06 09:22:40;;;;;;;3.33;3.03;;;24.50;34.10;;;;;;10413779;28;20224;-74
2023/09/06 09:27:46;;;;;;;3.00;2.80;;;24.80;34.00;;;;;;10413356;28;20244;-73
2023/09/06 09:32:57;;;;;;;5.00;2.80;;;25.10;32.90;;;;;;10417731;28;20268;-75
2023/09/06 09:38:02;;;;;;;3.07;2.87;;;25.30;32.00;;;;;;10418517;28;20236;-75
2023/09/06 09:43:05;;;;;;;3.10;2.90;;;25.50;32.70;;;;;;10412118;28;20214;-75
2023/09/06 09:48:10;;;;;;;3.27;3.07;;;25.70;32.50;;;;;;10415237;28;20221;-74
2023/09/06 09:53:14;;;;;;;3.10;2.90;;;25.90;31.50;;;;;;10422278;28;20233;-74
2023/09/06 09:58:28;;;;;;;3.00;2.80;;;26.10;32.10;;;;;;10408277;28;20233;-74
2023/09/06 10:03:34;;;;;;;3.70;3.47;;;26.30;31.10;;;;;;10414358;28;20665;-75
2023/09/06 10:08:40;;;;;;;3.27;3.07;;;26.40;30.90;;;;;;10415870;28;20233;-74
2023/09/06 10:13:46;;;;;;;3.23;3.03;;;26.60;31.20;;;;;;10407950;28;20251;-75
2023/09/06 10:18:51;;;;;;;3.10;2.90;;;26.80;30.40;;;;;;10404399;28;20233;-74
2023/09/06 10:23:55;;;;;;;3.23;3.00;;;27.00;29.70;;;;;;10414498;28;20602;-75
2023/09/06 10:28:59;;;;;;;3.10;2.90;;;27.10;29.80;;;;;;10408349;28;20228;-75
2023/09/06 10:34:05;;;;;;;3.10;2.90;;;27.30;29.90;;;;;;10407943;28;20310;-74
2023/09/06 10:39:18;;;;;;;3.10;2.90;;;27.40;29.30;;;;;;10413445;28;20267;-75
2023/09/06 10:44:23;;;;;;;3.37;3.07;;;27.60;28.60;;;;;;10406226;28;20286;-75
2023/09/06 10:49:28;;;;;;;3.30;3.00;;;27.70;29.00;;;;;;10417498;28;20237;-75
2023/09/06 10:54:40;;;;;;;2.87;2.67;;;27.80;28.30;;;;;;10406459;28;20226;-75
2023/09/06 10:59:45;;;;;;;2.70;2.50;;;27.90;27.40;;;;;;10411770;28;20279;-75
2023/09/06 11:04:50;;;;;;;2.70;2.50;;;28.00;28.20;;;;;;10417653;28;20233;-74
2023/09/06 11:09:53;;;;;;;3.23;2.90;;;28.10;27.70;;;;;;10417121;28;20224;-75
2023/09/06 11:14:56;;;;;;;2.77;2.57;;;28.20;28.10;;;;;;10414168;28;20263;-74
2023/09/06 11:20:13;;;;;;;2.70;2.50;;;28.30;28.20;;;;;;10422142;28;21050;-76
2023/09/06 11:25:17;;;;;;;3.13;2.57;;;28.30;27.20;;;;;;10412984;28;20286;-74
2023/09/06 11:30:21;;;;;;;2.67;2.47;;;28.40;26.90;;;;;;10414045;28;20818;-74
2023/09/06 11:35:32;;;;;;;2.50;2.30;;;28.50;27.10;;;;;;10420974;28;20233;-74
2023/09/06 11:40:36;;;;;;;2.50;2.40;;;28.50;26.30;;;;;;10415294;28;20322;-74
2023/09/06 11:45:43;;;;;;;2.47;2.30;;;28.60;26.60;;;;;;10419101;28;20256;-74
2023/09/06 11:50:51;;;;;;;2.30;2.20;;;28.70;26.10;;;;;;10417273;28;20226;-74
2023/09/06 11:55:59;;;;;;;2.93;2.23;;;28.70;25.80;;;;;;10411518;28;20225;-74
2023/09/06 12:01:05;;;;;;;2.30;2.10;;;28.80;25.70;;;;;;10419720;28;20596;-74
2023/09/06 12:06:10;;;;;;;2.50;2.30;;;28.80;26.00;;;;;;10423710;28;20684;-74
2023/09/06 12:11:20;;;;;;;3.83;2.23;;;28.80;25.40;;;;;;10417501;28;20236;-72
2023/09/06 12:16:24;;;;;;;3.40;2.43;;;28.80;25.70;;;;;;10422141;28;20224;-73
2023/09/06 12:21:29;;;;;;;2.67;2.10;;;28.90;25.70;;;;;;10425096;28;20607;-74
2023/09/06 12:26:33;;;;;;;2.17;1.93;;;28.90;25.20;;;;;;10411628;28;20600;-74
2023/09/06 12:31:37;;;;;;;2.47;2.27;;;29.00;25.70;;;;;;10420123;28;20233;-74
2023/09/06 12:36:42;;;;;;;2.37;2.17;;;29.00;25.20;;;;;;10415367;28;20221;-74
2023/09/06 12:41:45;;;;;;;2.10;2.00;;;29.00;24.70;;;;;;10414374;28;20233;-74
2023/09/06 12:46:49;;;;;;;2.07;1.90;;;29.10;25.10;;;;;;10413224;28;20323;-74
2023/09/06 12:51:53;;;;;;;1.97;1.87;;;29.10;24.80;;;;;;10423293;28;20240;-74
2023/09/06 12:56:56;;;;;;;1.90;1.80;;;29.10;24.40;;;;;;10415704;28;20672;-74
2023/09/06 13:02:00;;;;;;;1.97;1.87;;;29.20;24.40;;;;;;10421275;28;20232;-74
2023/09/06 13:07:04;;;;;;;1.90;1.80;;;29.20;24.50;;;;;;10426631;28;20236;-74
2023/09/06 13:12:08;;;;;;;1.80;1.70;;;29.30;23.90;;;;;;10414913;28;21170;-74
2023/09/06 13:17:12;;;;;;;3.10;1.97;;;29.30;24.20;;;;;;10418093;28;20270;-74
2023/09/06 13:22:17;;;;;;;2.67;2.10;;;29.40;24.00;;;;;;10421132;28;20237;-74
2023/09/06 13:27:20;;;;;;;2.00;1.90;;;29.40;23.50;;;;;;10410667;28;20716;-74
2023/09/06 13:32:25;;;;;;;2.00;1.90;;;29.50;23.70;;;;;;10422187;28;20580;-74
2023/09/06 13:37:31;;;;;;;2.00;1.90;;;29.50;23.70;;;;;;10414505;28;20276;-74
2023/09/06 13:42:35;;;;;;;1.90;1.80;;;29.60;22.80;;;;;;10427753;28;20256;-74
2023/09/06 13:47:38;;;;;;;1.90;1.80;;;29.60;22.90;;;;;;10411873;28;20230;-74
2023/09/06 13:52:44;;;;;;;6.63;1.90;;;29.60;23.00;;;;;;10409602;28;20226;-74
2023/09/06 13:57:47;;;;;;;1.70;1.60;;;29.70;22.20;;;;;;10411933;28;20283;-74
2023/09/06 14:02:51;;;;;;;3.67;2.03;;;29.70;22.50;;;;;;10416748;28;20272;-74
2023/09/06 14:07:56;;;;;;;1.80;1.70;;;29.80;22.30;;;;;;10414918;28;20241;-74
2023/09/06 14:13:00;;;;;;;1.90;1.80;;;29.80;21.70;;;;;;10409202;28;20225;-74
2023/09/06 14:18:06;;;;;;;1.70;1.60;;;29.80;21.90;;;;;;10398727;28;20226;-74
2023/09/06 14:23:11;;;;;;;2.03;1.80;;;29.90;21.90;;;;;;10376987;28;20284;-74
2023/09/06 14:28:14;;;;;;;2.07;1.97;;;29.90;21.30;;;;;;10392520;28;20606;-74
2023/09/06 14:33:18;;;;;;;2.30;2.20;;;29.90;21.60;;;;;;10374791;28;20230;-74
2023/09/06 14:38:22;;;;;;;2.03;1.80;;;29.90;22.00;;;;;;10393440;28;21107;-74
2023/09/06 14:43:26;;;;;;;1.70;1.60;;;30.00;21.10;;;;;;10429293;28;20231;-74
2023/09/06 14:48:30;;;;;;;1.80;1.70;;;30.00;21.10;;;;;;10423576;28;20249;-74
2023/09/06 14:53:36;;;;;;;1.77;1.60;;;30.00;21.10;;;;;;10416598;28;20221;-74
2023/09/06 14:58:39;;;;;;;3.43;1.60;;;30.00;20.70;;;;;;10423774;28;20229;-74
2023/09/06 15:03:43;;;;;;;1.90;1.50;;;30.00;21.10;;;;;;10417178;28;20276;-74
2023/09/06 15:08:47;;;;;;;1.50;1.40;;;30.00;21.10;;;;;;10419370;28;20229;-74
2023/09/06 15:13:51;;;;;;;1.70;1.60;;;30.00;20.30;;;;;;10424141;28;20231;-75
2023/09/06 15:18:54;;;;;;;1.47;1.37;;;30.00;20.70;;;;;;10421178;28;20625;-74
2023/09/06 15:23:59;;;;;;;1.50;1.40;;;30.10;21.20;;;;;;10418300;28;20236;-74
2023/09/06 15:29:03;;;;;;;1.60;1.50;;;30.10;19.80;;;;;;10422514;28;20312;-73
2023/09/06 15:34:06;;;;;;;1.50;1.40;;;30.10;20.10;;;;;;10420994;28;20304;-74
2023/09/06 15:39:11;;;;;;;2.07;1.57;;;30.00;20.20;;;;;;10417232;28;20235;-73
2023/09/06 15:44:15;;;;;;;1.60;1.50;;;30.10;19.80;;;;;;10419437;28;20591;-73
2023/09/06 15:49:19;;;;;;;1.73;1.63;;;30.10;20.40;;;;;;10417128;28;20667;-74
2023/09/06 15:54:23;;;;;;;1.37;1.30;;;30.10;20.50;;;;;;10417304;28;20233;-75
2023/09/06 15:59:26;;;;;;;2.00;1.60;;;30.10;19.90;;;;;;10418278;28;20324;-76
2023/09/06 16:04:30;;;;;;;1.80;1.70;;;30.10;20.20;;;;;;10423317;28;20244;-75
2023/09/06 16:09:37;;;;;;;1.63;1.53;;;30.10;20.20;;;;;;10416274;28;20229;-76
2023/09/06 16:14:40;;;;;;;1.63;1.53;;;30.10;20.20;;;;;;10417033;28;20239;-76
2023/09/06 16:19:44;;;;;;;2.93;1.70;;;30.20;20.60;;;;;;10411262;28;20252;-76
2023/09/06 16:24:48;;;;;;;1.83;1.50;;;30.20;20.40;;;;;;10420518;28;20731;-75
2023/09/06 16:29:52;;;;;;;1.60;1.50;;;30.20;20.40;;;;;;10429587;28;20249;-75
2023/09/06 16:34:56;;;;;;;1.80;1.70;;;30.30;20.80;;;;;;10425157;28;20717;-75
2023/09/06 16:40:00;;;;;;;2.27;1.90;;;30.30;20.90;;;;;;10418449;28;20701;-75
2023/09/06 16:45:06;;;;;;;2.00;1.80;;;30.40;21.10;;;;;;10415254;28;20217;-75
2023/09/06 16:50:10;;;;;;;2.27;2.07;;;30.50;21.40;;;;;;10421426;28;20230;-75
2023/09/06 16:55:15;;;;;;;2.50;2.30;;;30.50;21.40;;;;;;10413949;28;20785;-75
2023/09/06 17:00:21;;;;;;;3.57;2.60;;;30.50;21.40;;;;;;10413062;28;20232;-75
2023/09/06 17:05:25;;;;;;;3.73;2.57;;;30.40;21.30;;;;;;10424950;28;20312;-75
2023/09/06 17:10:29;;;;;;;3.27;2.50;;;30.30;21.30;;;;;;10421837;28;20226;-75
2023/09/06 17:15:33;;;;;;;2.57;2.20;;;30.10;21.50;;;;;;10418191;28;20226;-76
2023/09/06 17:20:37;;;;;;;2.70;2.50;;;29.90;21.60;;;;;;10423726;28;20236;-76
2023/09/06 17:25:41;;;;;;;2.43;2.23;;;29.80;22.10;;;;;;10424502;28;20286;-76
2023/09/06 17:30:46;;;;;;;2.63;2.40;;;29.60;22.40;;;;;;10415377;28;20229;-76
2023/09/06 17:35:50;;;;;;;2.40;2.30;;;29.50;22.50;;;;;;10412116;28;20317;-76
2023/09/06 17:40:55;;;;;;;2.40;2.20;;;29.40;22.80;;;;;;10421641;28;20933;-75
2023/09/06 17:46:01;;;;;;;2.77;2.50;;;29.20;23.30;;;;;;10420998;28;20248;-75
2023/09/06 17:51:07;;;;;;;2.50;2.30;;;29.10;23.20;;;;;;10413116;28;20659;-75
2023/09/06 17:56:15;;;;;;;2.67;2.47;;;29.00;23.50;;;;;;10413467;28;20805;-75
2023/09/06 18:01:20;;;;;;;2.50;2.30;;;28.80;23.70;;;;;;10414808;28;20239;-75
2023/09/06 18:06:25;;;;;;;3.30;2.50;;;28.70;23.70;;;;;;10418289;28;20279;-75
2023/09/06 18:11:31;;;;;;;2.60;2.40;;;28.50;23.90;;;;;;10424118;28;20228;-75
2023/09/06 18:16:36;;;;;;;2.97;2.60;;;28.30;24.30;;;;;;10415402;28;20232;-75
2023/09/06 18:21:41;;;;;;;2.60;2.40;;;28.10;24.20;;;;;;10419037;28;20802;-75
2023/09/06 18:26:45;;;;;;;2.47;2.27;;;27.90;24.40;;;;;;10424351;28;20245;-75
2023/09/06 18:32:06;;;;;;;2.80;2.50;;;27.70;24.90;;;;;;10412285;28;20928;-75
2023/09/06 18:37:09;;;;;;;2.83;2.57;;;27.50;24.80;;;;;;10416698;28;20245;-75
2023/09/06 18:42:14;;;;;;;3.17;2.97;;;27.30;24.80;;;;;;10416213;28;20232;-75
2023/09/06 18:47:19;;;;;;;3.20;2.90;;;27.10;25.50;;;;;;10409463;28;20596;-74
2023/09/06 18:52:23;;;;;;;2.93;2.73;;;26.90;25.40;;;;;;10410857;28;20232;-75
2023/09/06 18:57:28;;;;;;;3.00;2.80;;;26.60;25.50;;;;;;10406231;28;20895;-75
2023/09/06 19:02:32;;;;;;;3.20;2.90;;;26.40;26.00;;;;;;10406559;28;20229;-76
2023/09/06 19:07:38;;;;;;;3.03;2.60;;;26.10;26.00;;;;;;10409946;28;20234;-74
2023/09/06 19:12:43;;;;;;;2.60;2.40;;;26.00;26.50;;;;;;10405998;28;21222;-75
2023/09/06 19:17:48;;;;;;;2.87;2.67;;;25.80;26.80;;;;;;10404131;28;20243;-73
2023/09/06 19:22:52;;;;;;;2.67;2.47;;;25.60;26.70;;;;;;10405940;28;20886;-73
2023/09/06 19:27:57;;;;;;;4.50;2.70;;;25.40;26.90;;;;;;10407873;28;20269;-73
2023/09/06 19:33:00;;;;;;;3.17;2.77;;;25.20;27.50;;;;;;10410053;28;20717;-72
2023/09/06 19:38:04;;;;;;;3.83;3.50;;;25.00;27.30;;;;;;10407567;28;20734;-73
2023/09/06 19:43:09;;;;;;;3.77;3.30;;;24.80;27.60;;;;;;10403374;28;20230;-72
2023/09/06 19:48:12;;;;;;;4.30;3.30;;;24.80;28.40;;;;;;10409204;28;20597;-73
2023/09/06 19:53:16;;;;;;;4.00;3.60;;;24.70;28.10;;;;;;10404385;28;20225;-74
2023/09/06 19:58:21;;;;;;;4.17;3.77;;;24.60;28.00;;;;;;10412974;28;20722;-73
2023/09/06 20:03:24;;;;;;;4.40;4.00;;;24.40;28.30;;;;;;10414507;28;20234;-73
2023/09/06 20:08:27;;;;;;;7.00;4.03;;;24.10;28.10;;;;;;10419539;28;20233;-73
2023/09/06 20:13:33;;;;;;;4.00;3.70;;;23.90;27.90;;;;;;10411276;28;20222;-74
2023/09/06 20:18:37;;;;;;;4.00;3.70;;;23.90;28.90;;;;;;10412083;28;20236;-74
2023/09/06 20:23:40;;;;;;;3.80;3.40;;;23.80;28.80;;;;;;10413714;28;20237;-73
2023/09/06 20:28:45;;;;;;;4.10;3.80;;;23.70;28.70;;;;;;10412952;28;20237;-73
2023/09/06 20:33:48;;;;;;;4.57;4.17;;;23.70;29.20;;;;;;10414031;28;20320;-73
2023/09/06 20:38:51;;;;;;;4.57;4.20;;;23.70;28.90;;;;;;10408525;28;20282;-73
2023/09/06 20:43:56;;;;;;;4.70;4.30;;;23.70;29.00;;;;;;10413692;28;20331;-73
2023/09/06 20:48:59;;;;;;;4.57;4.17;;;23.70;29.40;;;;;;10416645;28;20228;-73
2023/09/06 20:54:03;;;;;;;4.80;4.37;;;23.60;29.00;;;;;;10411784;28;20226;-73
2023/09/06 20:59:07;;;;;;;4.70;4.30;;;23.50;29.10;;;;;;10413932;28;20226;-73
2023/09/06 21:04:10;;;;;;;4.47;3.77;;;23.40;29.40;;;;;;10408741;28;20237;-74
2023/09/06 21:09:14;;;;;;;4.27;3.87;;;23.30;29.30;;;;;;10412894;28;20731;-74
2023/09/06 21:14:18;;;;;;;3.87;3.57;;;23.20;29.20;;;;;;10416298;28;20595;-73
2023/09/06 21:19:22;;;;;;;3.80;3.50;;;23.10;29.80;;;;;;10414314;28;20614;-73
2023/09/06 21:24:27;;;;;;;3.77;3.47;;;23.00;29.40;;;;;;10415129;28;20611;-74
2023/09/06 21:29:34;;;;;;;3.53;3.23;;;22.90;29.60;;;;;;10415434;28;20229;-73
2023/09/06 21:34:37;;;;;;;3.47;3.17;;;22.80;30.00;;;;;;10414689;28;20344;-74
2023/09/06 21:39:40;;;;;;;3.97;3.67;;;22.80;29.60;;;;;;10412446;28;20252;-73
2023/09/06 21:44:45;;;;;;;4.87;3.77;;;22.70;29.70;;;;;;10414849;28;20690;-74
2023/09/06 21:49:49;;;;;;;4.03;3.57;;;22.60;30.10;;;;;;10417918;28;20251;-73
2023/09/06 21:54:52;;;;;;;4.60;4.20;;;22.40;29.90;;;;;;10412032;28;20229;-73
2023/09/06 21:59:57;;;;;;;3.90;3.60;;;22.30;30.10;;;;;;10410105;28;20717;-73
2023/09/06 22:05:00;;;;;;;3.97;3.60;;;22.20;30.50;;;;;;10411031;28;20217;-73
2023/09/06 22:10:05;;;;;;;3.97;3.50;;;22.20;30.10;;;;;;10411333;28;20232;-73
2023/09/06 22:15:11;;;;;;;4.17;3.77;;;22.10;30.10;;;;;;10413445;28;20226;-73
2023/09/06 22:20:18;;;;;;;3.77;3.47;;;22.10;30.90;;;;;;10419770;28;20236;-73
2023/09/06 22:25:21;;;;;;;4.77;3.30;;;22.10;30.30;;;;;;10417869;28;21049;-73
2023/09/06 22:30:25;;;;;;;3.97;3.67;;;22.00;30.30;;;;;;10415248;28;20698;-73
2023/09/06 22:35:29;;;;;;;3.73;3.50;;;22.00;30.60;;;;;;10413663;28;20589;-73
2023/09/06 22:40:33;;;;;;;3.67;3.37;;;21.90;30.30;;;;;;10417097;28;20702;-73
2023/09/06 22:45:39;;;;;;;3.73;3.23;;;21.80;30.20;;;;;;10412367;28;20316;-73
2023/09/06 22:50:42;;;;;;;3.73;3.43;;;21.80;30.90;;;;;;10417399;28;20235;-73
2023/09/06 22:55:46;;;;;;;3.77;3.47;;;21.80;30.50;;;;;;10412988;28;20221;-73
2023/09/06 23:00:51;;;;;;;4.33;3.20;;;21.70;30.50;;;;;;10417301;28;20308;-73
2023/09/06 23:05:54;;;;;;;4.50;4.10;;;21.60;30.90;;;;;;10417620;28;20309;-74
2023/09/06 23:10:58;;;;;;;3.93;3.63;;;21.60;30.70;;;;;;10421843;28;20236;-73
2023/09/06 23:16:05;;;;;;;4.07;3.77;;;21.50;30.60;;;;;;10422689;28;20247;-73
2023/09/06 23:21:10;;;;;;;3.70;3.40;;;21.40;30.90;;;;;;10419572;28;20760;-73
2023/09/06 23:26:18;;;;;;;3.63;3.27;;;21.20;30.70;;;;;;10417237;28;20233;-73
2023/09/06 23:31:25;;;;;;;3.43;3.23;;;21.10;30.90;;;;;;10424676;28;20726;-73
2023/09/06 23:36:28;;;;;;;3.40;3.20;;;21.00;31.40;;;;;;10425361;28;20313;-73
2023/09/06 23:41:31;;;;;;;4.13;3.83;;;20.90;30.90;;;;;;10419967;28;20768;-73
2023/09/06 23:46:36;;;;;;;3.97;3.67;;;20.80;31.20;;;;;;10415434;28;20237;-73
2023/09/06 23:51:39;;;;;;;3.70;3.40;;;20.80;31.90;;;;;;10419406;28;20229;-73
2023/09/06 23:56:43;;;;;;;3.77;3.47;;;20.70;31.70;;;;;;10421105;28;20229;-73
